Terminal Aerodrome Forecast
Issued by NWS Cleveland, OH

Home | Current Version | Previous Version | Graphics & Text | Print | Product List | Glossary On
Versions: 1 2 3 4 5 6 7 8 9 10 11 12 13 14
000
FTUS41 KCLE 291123
TAFCAK
TAF
KCAK 291123Z 2912/3012 17005KT P6SM SCT120 OVC250
      TEMPO 2912/2913 4SM BR
     FM291500 22006KT P6SM SCT050 BKN120
     FM300800 19004KT P6SM VCTS SCT035CB OVC050=

USA.gov is the U.S. government's official web portal to all federal, state and local government web resources and services.